createdAt,value
2018-09-06T00:01:18.159Z,21.40
2018-09-06T00:03:47.221Z,21.30
2018-09-06T00:06:16.279Z,21.30
2018-09-06T00:08:44.531Z,21.30
2018-09-06T00:11:13.574Z,21.20
2018-09-06T00:13:41.850Z,21.20
2018-09-06T00:16:10.106Z,21.30
2018-09-06T00:18:38.401Z,21.30
2018-09-06T00:21:06.642Z,21.20
2018-09-06T00:23:34.937Z,21.20
2018-09-06T00:26:03.191Z,21.30
2018-09-06T00:28:31.475Z,21.30
2018-09-06T00:30:59.772Z,21.30
2018-09-06T00:33:28.028Z,21.20
2018-09-06T00:35:56.287Z,21.10
2018-09-06T00:38:25.326Z,21.20
2018-09-06T00:40:53.586Z,21.20
2018-09-06T00:43:21.863Z,21.30
2018-09-06T00:45:50.110Z,21.40
2018-09-06T00:48:18.380Z,21.50
2018-09-06T00:50:46.654Z,21.60
2018-09-06T00:53:14.907Z,21.60
2018-09-06T00:55:43.950Z,21.60
2018-09-06T00:58:12.203Z,21.50
2018-09-06T01:00:40.466Z,21.60
2018-09-06T01:03:09.483Z,21.80
2018-09-06T01:05:37.780Z,21.70
2018-09-06T01:08:06.059Z,21.90
2018-09-06T01:10:34.342Z,22.00
2018-09-06T01:13:02.606Z,22.00
2018-09-06T01:15:30.866Z,22.00
2018-09-06T01:17:59.132Z,22.00
2018-09-06T01:20:27.418Z,21.90
2018-09-06T01:22:55.759Z,21.90
2018-09-06T01:25:24.780Z,21.90
2018-09-06T01:27:53.051Z,21.80
2018-09-06T01:30:21.294Z,21.90
2018-09-06T01:32:50.312Z,22.00
2018-09-06T01:35:18.693Z,21.90
2018-09-06T01:37:46.952Z,22.00
2018-09-06T01:40:16.018Z,22.10
2018-09-06T01:42:44.287Z,22.10
2018-09-06T01:45:12.534Z,22.20
2018-09-06T01:47:41.549Z,22.40
2018-09-06T01:50:09.819Z,22.30
2018-09-06T01:52:38.066Z,22.40
2018-09-06T01:55:06.340Z,22.50
2018-09-06T01:57:34.617Z,22.40
2018-09-06T02:00:02.866Z,22.40
2018-09-06T02:02:31.141Z,22.40
2018-09-06T02:05:00.152Z,22.20
2018-09-06T02:07:28.413Z,22.20
2018-09-06T02:09:57.022Z,22.10
2018-09-06T02:12:25.349Z,22.00
2018-09-06T02:14:53.611Z,21.90
2018-09-06T02:17:22.632Z,21.50
2018-09-06T02:19:52.226Z,21.50
2018-09-06T02:22:21.402Z,21.50
2018-09-06T02:24:49.658Z,21.50
2018-09-06T02:27:18.158Z,21.50
2018-09-06T02:29:46.442Z,21.50
2018-09-06T02:32:14.697Z,21.40
2018-09-06T02:34:42.993Z,21.30
2018-09-06T02:37:11.252Z,21.20
2018-09-06T02:39:39.498Z,21.10
2018-09-06T02:42:07.770Z,21.10
2018-09-06T02:44:36.038Z,21.10
2018-09-06T02:47:04.290Z,21.10
2018-09-06T02:49:33.322Z,21.00
2018-09-06T02:52:01.601Z,21.00
2018-09-06T02:54:30.682Z,20.90
2018-09-06T02:56:58.957Z,21.00
2018-09-06T02:59:27.223Z,20.90
2018-09-06T03:01:55.484Z,20.90
2018-09-06T03:04:23.739Z,20.80
2018-09-06T03:06:52.766Z,20.60
2018-09-06T03:09:21.054Z,20.60
2018-09-06T03:11:49.341Z,20.60
2018-09-06T03:14:17.593Z,20.50
2018-09-06T03:16:46.215Z,20.50
2018-09-06T03:19:14.579Z,20.50
2018-09-06T03:21:42.852Z,20.60
2018-09-06T03:24:11.130Z,20.60
2018-09-06T03:26:39.404Z,20.60
2018-09-06T03:29:08.563Z,20.60
2018-09-06T03:31:36.777Z,20.70
2018-09-06T03:34:05.278Z,20.70
2018-09-06T03:36:33.543Z,20.70
2018-09-06T03:39:01.793Z,20.80
2018-09-06T03:41:30.091Z,20.70
2018-09-06T03:43:58.346Z,20.70
2018-09-06T03:46:26.755Z,20.70
2018-09-06T03:48:55.015Z,20.70
2018-09-06T03:51:23.289Z,20.70
2018-09-06T03:53:51.543Z,20.70
2018-09-06T03:56:19.809Z,20.70
2018-09-06T03:58:48.078Z,20.70
2018-09-06T04:01:16.331Z,20.70
2018-09-06T04:03:45.654Z,20.60
2018-09-06T04:06:13.905Z,20.60
2018-09-06T04:08:42.923Z,20.60
2018-09-06T04:11:11.197Z,20.60
2018-09-06T04:13:39.474Z,20.60
2018-09-06T04:16:07.729Z,20.60
2018-09-06T04:18:36.052Z,20.70
2018-09-06T04:21:04.288Z,20.60
2018-09-06T04:23:32.541Z,20.50
2018-09-06T04:26:01.578Z,20.60
2018-09-06T04:28:29.846Z,20.50
2018-09-06T04:30:58.105Z,20.50
2018-09-06T04:33:26.366Z,20.60
2018-09-06T04:35:55.678Z,20.50
2018-09-06T04:38:23.932Z,20.50
2018-09-06T04:40:52.961Z,20.50
2018-09-06T04:43:21.244Z,20.50
2018-09-06T04:45:49.574Z,20.50
2018-09-06T04:48:17.814Z,20.50
2018-09-06T04:50:46.057Z,20.40
2018-09-06T04:53:14.343Z,20.40
2018-09-06T04:55:42.583Z,20.40
2018-09-06T04:58:11.632Z,20.30
2018-09-06T05:00:39.886Z,20.30
2018-09-06T05:03:08.134Z,20.30
2018-09-06T05:05:36.414Z,20.20
2018-09-06T05:08:04.699Z,20.30
2018-09-06T05:10:33.010Z,20.20
2018-09-06T05:13:01.263Z,20.20
2018-09-06T05:15:29.549Z,20.20
2018-09-06T05:17:57.831Z,20.30
2018-09-06T05:20:26.073Z,20.20
2018-09-06T05:22:54.318Z,20.20
2018-09-06T05:25:23.367Z,20.30
2018-09-06T05:27:51.673Z,20.30
2018-09-06T05:30:19.936Z,20.40
2018-09-06T05:32:48.213Z,20.30
2018-09-06T05:35:16.596Z,20.30
2018-09-06T05:37:44.730Z,20.30
2018-09-06T05:40:13.034Z,20.40
2018-09-06T05:42:41.286Z,20.50
2018-09-06T05:45:09.570Z,20.50
2018-09-06T05:47:37.824Z,20.50
2018-09-06T05:50:06.111Z,20.50
2018-09-06T05:52:34.349Z,20.50
2018-09-06T05:55:03.410Z,20.70
2018-09-06T05:57:31.670Z,20.70
2018-09-06T05:59:59.934Z,20.80
2018-09-06T06:02:28.206Z,20.90
2018-09-06T06:04:56.487Z,21.00
2018-09-06T06:07:24.770Z,21.10
2018-09-06T06:09:53.024Z,21.10
2018-09-06T06:12:21.356Z,21.20
2018-09-06T06:14:49.603Z,21.20
2018-09-06T06:17:17.879Z,21.30
2018-09-06T06:19:46.142Z,21.40
2018-09-06T06:22:15.212Z,21.40
2018-09-06T06:24:44.215Z,21.50
2018-09-06T06:27:12.722Z,21.50
2018-09-06T06:29:40.969Z,21.60
2018-09-06T06:32:09.237Z,21.80
2018-09-06T06:34:37.503Z,21.90
2018-09-06T06:37:05.759Z,22.10
2018-09-06T06:39:34.803Z,22.40
2018-09-06T06:42:03.058Z,22.40
2018-09-06T06:44:31.307Z,22.60
2018-09-06T06:46:59.843Z,22.70
2018-09-06T06:49:28.107Z,22.80
2018-09-06T06:51:56.353Z,22.90
2018-09-06T06:54:24.641Z,23.10
2018-09-06T06:56:52.923Z,23.10
2018-09-06T06:59:21.284Z,23.00
2018-09-06T07:01:49.557Z,23.20
2018-09-06T07:04:17.834Z,23.30
2018-09-06T07:06:46.840Z,23.50
2018-09-06T07:09:15.106Z,23.50
2018-09-06T07:11:43.394Z,23.60
2018-09-06T07:14:11.658Z,23.60
2018-09-06T07:16:39.918Z,23.70
2018-09-06T07:19:08.174Z,23.70
2018-09-06T07:21:37.210Z,24.00
2018-09-06T07:24:05.469Z,24.00
2018-09-06T07:26:33.763Z,24.10
2018-09-06T07:29:02.022Z,24.30
2018-09-06T07:31:30.309Z,24.20
2018-09-06T07:33:58.579Z,24.10
2018-09-06T07:36:26.838Z,24.30
2018-09-06T07:38:55.100Z,24.40
2018-09-06T07:41:24.169Z,24.70
2018-09-06T07:43:52.426Z,24.70
2018-09-06T07:46:20.710Z,24.90
2018-09-06T07:48:48.943Z,25.00
2018-09-06T07:51:17.262Z,24.90
2018-09-06T07:53:45.514Z,24.80
2018-09-06T07:56:13.798Z,24.80
2018-09-06T07:58:42.046Z,24.90
2018-09-06T08:01:10.334Z,24.90
2018-09-06T08:03:38.610Z,25.00
2018-09-06T08:06:06.869Z,25.10
2018-09-06T08:08:35.146Z,25.20
2018-09-06T08:11:03.410Z,25.50
2018-09-06T08:13:31.678Z,25.70
2018-09-06T08:15:59.927Z,25.70
2018-09-06T08:18:28.967Z,25.40
2018-09-06T08:20:57.218Z,25.40
2018-09-06T08:23:25.498Z,25.50
2018-09-06T08:25:54.538Z,25.90
2018-09-06T08:28:22.811Z,25.90
2018-09-06T08:30:51.134Z,25.80
2018-09-06T08:33:19.389Z,25.30
2018-09-06T08:35:47.614Z,25.10
2018-09-06T08:38:15.889Z,25.10
2018-09-06T08:40:44.177Z,25.30
2018-09-06T08:43:12.430Z,25.70
2018-09-06T08:45:40.710Z,25.90
2018-09-06T08:48:08.945Z,26.10
2018-09-06T08:50:37.979Z,26.40
2018-09-06T08:53:06.281Z,26.40
2018-09-06T08:55:34.489Z,26.60
2018-09-06T08:58:03.519Z,26.90
2018-09-06T09:00:31.770Z,26.80
2018-09-06T09:03:00.143Z,26.90
2018-09-06T09:05:29.050Z,27.00
2018-09-06T09:07:57.313Z,27.00
2018-09-06T09:10:25.635Z,27.10
2018-09-06T09:12:53.873Z,27.10
2018-09-06T09:15:23.073Z,27.00
2018-09-06T09:17:51.335Z,27.00
2018-09-06T09:20:20.364Z,27.20
2018-09-06T09:22:48.661Z,27.20
2018-09-06T09:25:17.701Z,27.10
2018-09-06T09:27:45.974Z,27.20
2018-09-06T09:30:14.223Z,27.30
2018-09-06T09:32:42.510Z,27.30
2018-09-06T09:35:11.540Z,27.90
2018-09-06T09:37:39.799Z,27.90
2018-09-06T09:40:08.063Z,27.80
2018-09-06T09:42:37.097Z,27.70
2018-09-06T09:45:05.354Z,27.70
2018-09-06T09:50:01.111Z,27.90
2018-09-06T09:52:29.394Z,27.90
2018-09-06T09:54:57.641Z,28.00
2018-09-06T09:57:25.886Z,28.00
2018-09-06T09:59:54.150Z,27.90
2018-09-06T10:02:23.198Z,28.30
2018-09-06T10:04:51.462Z,28.30
2018-09-06T10:07:25.434Z,28.50
2018-09-06T10:09:55.798Z,28.20
2018-09-06T10:12:24.073Z,28.00
2018-09-06T10:14:52.337Z,28.20
2018-09-06T10:17:20.598Z,27.70
2018-09-06T10:19:48.861Z,27.70
2018-09-06T10:22:17.890Z,28.20
2018-09-06T10:24:46.154Z,28.20
2018-09-06T10:27:14.402Z,28.40
2018-09-06T10:29:43.439Z,28.40
2018-09-06T10:32:11.709Z,28.40
2018-09-06T10:34:39.959Z,28.50
2018-09-06T10:37:08.214Z,28.40
2018-09-06T10:39:37.291Z,28.70
2018-09-06T10:42:05.543Z,28.60
2018-09-06T10:44:34.622Z,28.90
2018-09-06T10:47:02.901Z,29.10
2018-09-06T10:49:31.167Z,28.80
2018-09-06T10:51:59.433Z,28.80
2018-09-06T10:54:27.688Z,28.50
2018-09-06T10:56:56.751Z,28.80
2018-09-06T10:59:25.118Z,28.70
2018-09-06T11:01:53.386Z,28.70
2018-09-06T11:04:21.657Z,28.70
2018-09-06T11:06:49.898Z,28.80
2018-09-06T11:09:18.176Z,28.60
2018-09-06T11:11:46.539Z,28.40
2018-09-06T11:14:14.828Z,28.40
2018-09-06T11:16:43.114Z,28.50
2018-09-06T11:19:11.430Z,28.70
2018-09-06T11:21:39.838Z,28.60
2018-09-06T11:24:07.935Z,28.70
2018-09-06T11:26:36.192Z,28.80
2018-09-06T11:29:04.467Z,28.80
2018-09-06T11:31:32.722Z,28.70
2018-09-06T11:34:01.778Z,28.80
2018-09-06T11:36:30.012Z,28.80
2018-09-06T11:38:58.289Z,29.20
2018-09-06T11:41:27.338Z,29.70
2018-09-06T11:43:55.576Z,29.70
2018-09-06T11:46:23.850Z,29.80
2018-09-06T11:48:52.101Z,29.80
2018-09-06T11:51:20.411Z,29.90
2018-09-06T11:53:48.649Z,30.10
2018-09-06T11:56:16.919Z,30.30
2018-09-06T11:58:45.953Z,30.50
2018-09-06T12:01:14.226Z,30.50
2018-09-06T12:03:42.515Z,30.20
2018-09-06T12:06:10.852Z,30.10
2018-09-06T12:08:39.033Z,30.10
2018-09-06T12:11:07.318Z,30.00
2018-09-06T12:13:35.597Z,30.10
2018-09-06T12:16:03.868Z,30.20
2018-09-06T12:18:32.133Z,30.40
2018-09-06T12:21:00.379Z,30.50
2018-09-06T12:23:29.424Z,30.80
2018-09-06T12:25:57.670Z,30.80
2018-09-06T12:28:25.935Z,30.80
2018-09-06T12:30:54.575Z,30.90
2018-09-06T12:33:22.846Z,30.40
2018-09-06T12:35:51.074Z,30.40
2018-09-06T12:38:19.409Z,30.40
2018-09-06T12:40:47.641Z,30.50
2018-09-06T12:43:15.927Z,30.50
2018-09-06T12:45:44.168Z,30.60
2018-09-06T12:48:13.198Z,30.80
2018-09-06T12:50:41.452Z,30.80
2018-09-06T12:53:09.720Z,30.80
2018-09-06T12:55:37.982Z,30.70
2018-09-06T12:58:06.256Z,30.70
2018-09-06T13:00:35.306Z,30.90
2018-09-06T13:03:03.548Z,30.80
2018-09-06T13:05:31.830Z,31.00
2018-09-06T13:08:00.098Z,30.80
2018-09-06T13:10:28.356Z,30.90
2018-09-06T13:12:56.636Z,31.00
2018-09-06T13:15:25.143Z,30.90
2018-09-06T13:17:53.411Z,30.80
2018-09-06T13:20:21.663Z,30.70
2018-09-06T13:22:49.922Z,30.60
2018-09-06T13:25:18.942Z,30.80
2018-09-06T13:27:47.214Z,30.80
2018-09-06T13:30:15.513Z,30.60
2018-09-06T13:32:43.767Z,30.40
2018-09-06T13:35:12.012Z,30.50
2018-09-06T13:37:41.039Z,30.00
2018-09-06T13:40:09.368Z,30.00
2018-09-06T13:42:37.608Z,29.80
2018-09-06T13:45:06.017Z,29.40
2018-09-06T13:47:35.077Z,29.30
2018-09-06T13:50:03.309Z,29.30
2018-09-06T13:52:32.351Z,29.40
2018-09-06T13:55:00.614Z,29.40
2018-09-06T13:57:28.890Z,29.60
2018-09-06T13:59:57.147Z,29.50
2018-09-06T14:02:26.149Z,29.10
2018-09-06T14:04:54.463Z,29.10
2018-09-06T14:07:22.674Z,29.00
2018-09-06T14:09:50.927Z,28.70
2018-09-06T14:12:19.186Z,28.50
2018-09-06T14:14:47.451Z,28.20
2018-09-06T14:17:15.700Z,28.10
2018-09-06T14:19:44.022Z,28.20
2018-09-06T14:22:12.329Z,28.40
2018-09-06T14:24:41.333Z,28.50
2018-09-06T14:27:10.119Z,28.40
2018-09-06T14:29:38.376Z,28.30
2018-09-06T14:32:07.432Z,28.10
2018-09-06T14:34:36.376Z,28.00
2018-09-06T14:37:04.651Z,28.10
2018-09-06T14:39:33.179Z,28.30
2018-09-06T14:42:01.462Z,28.20
2018-09-06T14:44:29.741Z,28.00
2018-09-06T14:46:57.999Z,27.80
2018-09-06T14:49:27.235Z,27.80
2018-09-06T14:51:55.556Z,27.80
2018-09-06T14:54:23.795Z,27.90
2018-09-06T14:56:52.838Z,27.90
2018-09-06T14:59:21.101Z,27.90
2018-09-06T15:01:49.371Z,27.60
2018-09-06T15:04:17.645Z,27.40
2018-09-06T15:06:45.887Z,27.10
2018-09-06T15:09:14.897Z,26.80
2018-09-06T15:11:43.154Z,26.70
2018-09-06T15:14:12.471Z,25.80
2018-09-06T15:16:40.731Z,25.80
2018-09-06T15:19:09.756Z,24.90
2018-09-06T15:21:38.018Z,24.90
2018-09-06T15:24:06.261Z,24.90
2018-09-06T15:26:35.277Z,25.10
2018-09-06T15:29:03.542Z,25.10
2018-09-06T15:31:33.075Z,24.80
2018-09-06T15:34:02.063Z,24.70
2018-09-06T15:36:30.310Z,24.70
2018-09-06T15:38:59.124Z,24.80
2018-09-06T15:41:27.626Z,25.10
2018-09-06T15:43:55.974Z,25.20
2018-09-06T15:46:24.231Z,25.30
2018-09-06T15:48:52.479Z,25.50
2018-09-06T15:51:20.762Z,25.60
2018-09-06T15:53:49.020Z,25.60
2018-09-06T15:56:17.273Z,25.70
2018-09-06T15:58:45.534Z,25.60
2018-09-06T16:01:13.820Z,25.60
2018-09-06T16:03:42.122Z,25.70
2018-09-06T16:06:10.490Z,25.60
2018-09-06T16:08:38.776Z,25.60
2018-09-06T16:11:07.015Z,25.70
2018-09-06T16:13:35.575Z,25.80
2018-09-06T16:16:03.822Z,25.60
2018-09-06T16:18:32.849Z,25.60
2018-09-06T16:21:01.144Z,25.70
2018-09-06T16:23:29.454Z,25.70
2018-09-06T16:25:57.664Z,25.70
2018-09-06T16:28:26.681Z,25.50
2018-09-06T16:30:55.201Z,25.50
2018-09-06T16:33:23.454Z,25.50
2018-09-06T16:35:51.788Z,25.50
2018-09-06T16:38:20.015Z,25.50
2018-09-06T16:40:48.277Z,25.50
2018-09-06T16:43:16.753Z,25.50
2018-09-06T16:45:45.019Z,25.50
2018-09-06T16:48:13.289Z,25.40
2018-09-06T16:50:41.558Z,25.30
2018-09-06T16:53:09.809Z,25.30
2018-09-06T16:55:38.845Z,25.40
2018-09-06T16:58:07.138Z,25.40
2018-09-06T17:00:35.478Z,25.30
2018-09-06T17:03:04.014Z,25.30
2018-09-06T17:05:32.254Z,25.10
2018-09-06T17:08:00.645Z,25.10
2018-09-06T17:10:28.898Z,25.20
2018-09-06T17:12:57.265Z,25.30
2018-09-06T17:15:25.550Z,25.40
2018-09-06T17:17:53.893Z,25.10
2018-09-06T17:20:23.017Z,24.90
2018-09-06T17:22:51.206Z,24.90
2018-09-06T17:25:19.451Z,24.90
2018-09-06T17:27:48.020Z,24.90
2018-09-06T17:30:17.076Z,24.80
2018-09-06T17:32:45.390Z,24.80
2018-09-06T17:35:13.603Z,24.80
2018-09-06T17:37:41.907Z,24.80
2018-09-06T17:40:10.167Z,24.70
2018-09-06T17:42:38.447Z,24.70
2018-09-06T17:45:06.692Z,24.70
2018-09-06T17:47:35.009Z,24.70
2018-09-06T17:50:03.215Z,24.60
2018-09-06T17:52:31.494Z,24.40
2018-09-06T17:54:59.765Z,24.30
2018-09-06T17:57:28.882Z,24.10
2018-09-06T17:59:57.181Z,24.10
2018-09-06T18:02:25.472Z,24.10
2018-09-06T18:04:53.730Z,24.10
2018-09-06T18:07:22.043Z,24.10
2018-09-06T18:09:50.322Z,24.20
2018-09-06T18:12:18.590Z,24.30
2018-09-06T18:14:46.859Z,24.30
2018-09-06T18:17:15.130Z,24.30
2018-09-06T18:19:43.392Z,24.40
2018-09-06T18:22:13.177Z,24.50
2018-09-06T18:24:41.432Z,24.50
2018-09-06T18:27:09.686Z,24.60
2018-09-06T18:29:38.710Z,24.40
2018-09-06T18:32:07.007Z,24.40
2018-09-06T18:34:35.250Z,24.30
2018-09-06T18:37:03.530Z,24.30
2018-09-06T18:39:31.805Z,24.20
2018-09-06T18:42:00.055Z,24.20
2018-09-06T18:44:29.084Z,24.40
2018-09-06T18:46:58.258Z,24.40
2018-09-06T18:49:26.775Z,24.40
2018-09-06T18:51:55.034Z,24.40
2018-09-06T18:54:23.530Z,24.40
2018-09-06T18:56:51.795Z,24.30
2018-09-06T18:59:20.080Z,24.30
2018-09-06T19:01:49.060Z,24.30
2018-09-06T19:04:17.310Z,24.30
2018-09-06T19:06:45.595Z,24.20
2018-09-06T19:09:14.676Z,24.30
2018-09-06T19:11:42.862Z,24.30
2018-09-06T19:14:11.134Z,24.10
2018-09-06T19:16:39.433Z,23.90
2018-09-06T19:19:08.419Z,23.70
2018-09-06T19:21:37.135Z,23.70
2018-09-06T19:24:05.363Z,23.70
2018-09-06T19:26:33.630Z,23.70
2018-09-06T19:29:01.891Z,23.60
2018-09-06T19:31:30.276Z,23.80
2018-09-06T19:33:59.576Z,23.50
2018-09-06T19:36:28.607Z,23.40
2018-09-06T19:38:56.886Z,23.40
2018-09-06T19:41:25.892Z,23.40
2018-09-06T19:43:54.144Z,23.40
2018-09-06T19:46:22.416Z,23.50
2018-09-06T19:48:50.713Z,23.50
2018-09-06T19:51:18.959Z,23.60
2018-09-06T19:53:47.218Z,23.60
2018-09-06T19:56:15.478Z,23.60
2018-09-06T19:58:44.754Z,23.30
2018-09-06T20:01:13.016Z,23.30
2018-09-06T20:03:41.245Z,23.30
2018-09-06T20:06:10.585Z,23.20
2018-09-06T20:08:38.846Z,23.20
2018-09-06T20:11:07.111Z,23.20
2018-09-06T20:13:35.382Z,23.20
2018-09-06T20:16:03.669Z,23.10
2018-09-06T20:18:31.972Z,23.10
2018-09-06T20:21:00.283Z,23.10
2018-09-06T20:23:29.401Z,23.10
2018-09-06T20:25:57.663Z,23.00
2018-09-06T20:28:26.705Z,23.10
2018-09-06T20:30:54.963Z,23.10
2018-09-06T20:33:23.212Z,23.20
2018-09-06T20:35:51.493Z,23.20
2018-09-06T20:38:19.751Z,23.10
2018-09-06T20:40:48.033Z,23.10
2018-09-06T20:43:16.321Z,23.00
2018-09-06T20:45:45.524Z,22.90
2018-09-06T20:48:13.770Z,23.00
2018-09-06T20:50:42.798Z,23.00
2018-09-06T20:53:11.144Z,23.00
2018-09-06T20:55:39.366Z,23.10
2018-09-06T20:58:07.654Z,23.10
2018-09-06T21:00:35.898Z,23.10
2018-09-06T21:03:04.220Z,23.10
2018-09-06T21:05:32.434Z,23.10
2018-09-06T21:08:00.687Z,23.00
2018-09-06T21:10:29.705Z,22.90
2018-09-06T21:12:57.977Z,22.90
2018-09-06T21:15:26.253Z,22.90
2018-09-06T21:17:54.502Z,22.80
2018-09-06T21:20:23.541Z,22.80
2018-09-06T21:22:51.794Z,22.80
2018-09-06T21:25:20.145Z,22.80
2018-09-06T21:27:48.381Z,22.80
2018-09-06T21:30:16.653Z,22.80
2018-09-06T21:32:45.687Z,22.60
2018-09-06T21:35:14.835Z,22.50
2018-09-06T21:37:43.152Z,22.40
2018-09-06T21:40:11.415Z,22.30
2018-09-06T21:42:39.664Z,22.40
2018-09-06T21:45:07.947Z,22.40
2018-09-06T21:47:36.210Z,22.40
2018-09-06T21:50:04.479Z,22.30
2018-09-06T21:52:32.744Z,22.30
2018-09-06T21:55:01.032Z,22.20
2018-09-06T21:57:29.521Z,22.20
2018-09-06T21:59:57.810Z,22.10
2018-09-06T22:02:26.057Z,22.00
2018-09-06T22:04:54.322Z,22.00
2018-09-06T22:07:22.634Z,22.00
2018-09-06T22:09:50.895Z,21.90
2018-09-06T22:12:19.165Z,21.90
2018-09-06T22:14:47.422Z,21.90
2018-09-06T22:17:15.674Z,22.00
2018-09-06T22:19:44.725Z,22.00
2018-09-06T22:22:12.981Z,22.00
2018-09-06T22:24:41.244Z,22.00
2018-09-06T22:27:09.554Z,22.00
2018-09-06T22:29:37.846Z,22.00
2018-09-06T22:32:06.105Z,22.00
2018-09-06T22:34:34.469Z,22.00
2018-09-06T22:37:02.717Z,21.90
2018-09-06T22:39:31.263Z,21.90
2018-09-06T22:41:59.522Z,21.90
2018-09-06T22:44:27.770Z,21.80
2018-09-06T22:46:56.084Z,21.80
2018-09-06T22:49:25.116Z,21.70
2018-09-06T22:51:53.389Z,21.70
2018-09-06T22:54:21.694Z,21.70
2018-09-06T22:56:49.963Z,21.70
2018-09-06T22:59:18.217Z,21.70
2018-09-06T23:01:46.486Z,21.80
2018-09-06T23:04:14.769Z,21.70
2018-09-06T23:06:43.030Z,21.80
2018-09-06T23:09:11.297Z,21.70
2018-09-06T23:11:39.563Z,21.80
2018-09-06T23:14:08.596Z,21.70
2018-09-06T23:16:36.849Z,21.70
2018-09-06T23:19:05.148Z,21.70
2018-09-06T23:21:33.409Z,21.60
2018-09-06T23:24:01.689Z,21.50
2018-09-06T23:26:29.997Z,21.50
2018-09-06T23:28:58.245Z,21.40
2018-09-06T23:31:26.537Z,21.30
2018-09-06T23:33:54.866Z,21.20
2018-09-06T23:36:23.149Z,21.30
2018-09-06T23:38:51.401Z,21.30
2018-09-06T23:41:20.454Z,21.40
2018-09-06T23:43:48.694Z,21.40
2018-09-06T23:46:16.966Z,21.40
2018-09-06T23:48:45.242Z,21.40
2018-09-06T23:51:14.266Z,21.30
2018-09-06T23:53:42.513Z,21.30
2018-09-06T23:56:10.781Z,21.40
2018-09-06T23:58:39.030Z,21.40
